sensor_id;sensor_type;location;lat;lon;timestamp;temperature;humidity
48860;DHT22;34679;51.436;-2.518;2024-01-15T00:00:42;4.90;99.90
48860;DHT22;34679;51.436;-2.518;2024-01-15T00:03:08;5.00;99.90
48860;DHT22;34679;51.436;-2.518;2024-01-15T00:05:35;4.90;99.90
48860;DHT22;34679;51.436;-2.518;2024-01-15T00:08:00;4.90;99.90
48860;DHT22;34679;51.436;-2.518;2024-01-15T00:10:26;5.00;99.90
48860;DHT22;34679;51.436;-2.518;2024-01-15T00:12:52;5.00;99.90
48860;DHT22;34679;51.436;-2.518;2024-01-15T00:15:25;5.00;99.90
48860;DHT22;34679;51.436;-2.518;2024-01-15T00:17:53;5.00;99.90
48860;DHT22;34679;51.436;-2.518;2024-01-15T00:20:19;5.00;99.90
48860;DHT22;34679;51.436;-2.518;2024-01-15T00:22:45;4.90;99.90
48860;DHT22;34679;51.436;-2.518;2024-01-15T00:25:10;4.90;99.90
48860;DHT22;34679;51.436;-2.518;2024-01-15T00:27:36;4.90;99.90
48860;DHT22;34679;51.436;-2.518;2024-01-15T00:30:02;5.00;99.90
48860;DHT22;34679;51.436;-2.518;2024-01-15T00:32:30;5.00;99.90
48860;DHT22;34679;51.436;-2.518;2024-01-15T00:34:56;4.90;99.90
48860;DHT22;34679;51.436;-2.518;2024-01-15T00:37:22;4.90;99.90
48860;DHT22;34679;51.436;-2.518;2024-01-15T00:39:48;4.90;99.90
48860;DHT22;34679;51.436;-2.518;2024-01-15T00:42:13;4.90;99.90
48860;DHT22;34679;51.436;-2.518;2024-01-15T00:44:39;5.00;99.90
48860;DHT22;34679;51.436;-2.518;2024-01-15T00:47:05;5.00;99.90
48860;DHT22;34679;51.436;-2.518;2024-01-15T00:49:31;5.00;99.90
48860;DHT22;34679;51.436;-2.518;2024-01-15T00:51:56;5.00;99.90
48860;DHT22;34679;51.436;-2.518;2024-01-15T00:54:22;5.00;99.90
48860;DHT22;34679;51.436;-2.518;2024-01-15T00:56:50;5.00;99.90
48860;DHT22;34679;51.436;-2.518;2024-01-15T00:59:16;5.00;99.90
48860;DHT22;34679;51.436;-2.518;2024-01-15T01:01:42;5.00;99.90
48860;DHT22;34679;51.436;-2.518;2024-01-15T01:04:09;4.90;99.90
48860;DHT22;34679;51.436;-2.518;2024-01-15T01:06:35;4.90;99.90
48860;DHT22;34679;51.436;-2.518;2024-01-15T01:09:01;4.90;99.90
48860;DHT22;34679;51.436;-2.518;2024-01-15T01:11:26;4.90;99.90
48860;DHT22;34679;51.436;-2.518;2024-01-15T01:13:52;5.00;99.90
48860;DHT22;34679;51.436;-2.518;2024-01-15T01:16:18;5.00;99.90
48860;DHT22;34679;51.436;-2.518;2024-01-15T01:18:43;4.90;99.90
48860;DHT22;34679;51.436;-2.518;2024-01-15T01:21:09;4.90;99.90
48860;DHT22;34679;51.436;-2.518;2024-01-15T01:23:35;4.90;99.90
48860;DHT22;34679;51.436;-2.518;2024-01-15T01:26:00;4.80;99.90
48860;DHT22;34679;51.436;-2.518;2024-01-15T01:28:26;4.80;99.90
48860;DHT22;34679;51.436;-2.518;2024-01-15T01:30:52;4.80;99.90
48860;DHT22;34679;51.436;-2.518;2024-01-15T01:33:17;4.80;99.90
48860;DHT22;34679;51.436;-2.518;2024-01-15T01:35:43;4.80;99.90
48860;DHT22;34679;51.436;-2.518;2024-01-15T01:38:10;4.80;99.90
48860;DHT22;34679;51.436;-2.518;2024-01-15T01:40:36;4.80;99.90
48860;DHT22;34679;51.436;-2.518;2024-01-15T01:43:04;4.80;99.90
48860;DHT22;34679;51.436;-2.518;2024-01-15T01:45:29;4.80;99.90
48860;DHT22;34679;51.436;-2.518;2024-01-15T01:47:55;4.80;99.90
48860;DHT22;34679;51.436;-2.518;2024-01-15T01:50:21;4.80;99.90
48860;DHT22;34679;51.436;-2.518;2024-01-15T01:52:47;4.70;99.90
48860;DHT22;34679;51.436;-2.518;2024-01-15T01:55:14;4.70;99.90
48860;DHT22;34679;51.436;-2.518;2024-01-15T01:57:40;4.60;99.90
48860;DHT22;34679;51.436;-2.518;2024-01-15T02:00:07;4.50;99.90
48860;DHT22;34679;51.436;-2.518;2024-01-15T02:02:33;4.40;99.90
48860;DHT22;34679;51.436;-2.518;2024-01-15T02:04:59;4.30;99.90
48860;DHT22;34679;51.436;-2.518;2024-01-15T02:07:25;4.30;99.90
48860;DHT22;34679;51.436;-2.518;2024-01-15T02:09:51;4.30;99.90
48860;DHT22;34679;51.436;-2.518;2024-01-15T02:12:17;4.20;99.90
48860;DHT22;34679;51.436;-2.518;2024-01-15T02:14:42;4.10;99.90
48860;DHT22;34679;51.436;-2.518;2024-01-15T02:17:08;4.00;99.90
48860;DHT22;34679;51.436;-2.518;2024-01-15T02:19:34;4.00;99.90
48860;DHT22;34679;51.436;-2.518;2024-01-15T02:21:59;4.00;99.90
48860;DHT22;34679;51.436;-2.518;2024-01-15T02:24:25;4.00;99.90
48860;DHT22;34679;51.436;-2.518;2024-01-15T02:26:51;4.10;99.90
48860;DHT22;34679;51.436;-2.518;2024-01-15T02:29:17;4.20;99.90
48860;DHT22;34679;51.436;-2.518;2024-01-15T02:31:43;4.20;99.90
48860;DHT22;34679;51.436;-2.518;2024-01-15T02:34:09;4.30;99.90
48860;DHT22;34679;51.436;-2.518;2024-01-15T02:36:34;4.40;99.90
48860;DHT22;34679;51.436;-2.518;2024-01-15T02:39:00;4.40;99.90
48860;DHT22;34679;51.436;-2.518;2024-01-15T02:41:26;4.30;99.90
48860;DHT22;34679;51.436;-2.518;2024-01-15T02:43:51;4.30;99.90
48860;DHT22;34679;51.436;-2.518;2024-01-15T02:46:17;4.30;99.90
48860;DHT22;34679;51.436;-2.518;2024-01-15T02:48:43;4.30;99.90
48860;DHT22;34679;51.436;-2.518;2024-01-15T02:51:08;4.20;99.90
48860;DHT22;34679;51.436;-2.518;2024-01-15T02:53:36;4.20;99.90
48860;DHT22;34679;51.436;-2.518;2024-01-15T02:56:01;4.20;99.90
48860;DHT22;34679;51.436;-2.518;2024-01-15T02:58:27;4.10;99.90
48860;DHT22;34679;51.436;-2.518;2024-01-15T03:00:53;4.00;99.90
48860;DHT22;34679;51.436;-2.518;2024-01-15T03:03:18;3.90;99.90
48860;DHT22;34679;51.436;-2.518;2024-01-15T03:05:44;3.90;99.90
48860;DHT22;34679;51.436;-2.518;2024-01-15T03:08:10;3.80;99.90
48860;DHT22;34679;51.436;-2.518;2024-01-15T03:10:35;3.70;99.90
48860;DHT22;34679;51.436;-2.518;2024-01-15T03:13:01;3.70;99.90
48860;DHT22;34679;51.436;-2.518;2024-01-15T03:15:27;3.60;99.90
48860;DHT22;34679;51.436;-2.518;2024-01-15T03:17:53;3.50;99.90
48860;DHT22;34679;51.436;-2.518;2024-01-15T03:20:18;3.50;99.90
48860;DHT22;34679;51.436;-2.518;2024-01-15T03:22:44;3.50;99.90
48860;DHT22;34679;51.436;-2.518;2024-01-15T03:25:10;3.50;99.90
48860;DHT22;34679;51.436;-2.518;2024-01-15T03:27:35;3.60;99.90
48860;DHT22;34679;51.436;-2.518;2024-01-15T03:30:01;3.70;99.90
48860;DHT22;34679;51.436;-2.518;2024-01-15T03:32:28;3.70;99.90
48860;DHT22;34679;51.436;-2.518;2024-01-15T03:34:53;3.70;99.90
48860;DHT22;34679;51.436;-2.518;2024-01-15T03:37:19;3.80;99.90
48860;DHT22;34679;51.436;-2.518;2024-01-15T03:39:45;3.80;99.90
48860;DHT22;34679;51.436;-2.518;2024-01-15T03:42:11;3.90;99.90
48860;DHT22;34679;51.436;-2.518;2024-01-15T03:44:37;3.90;99.90
48860;DHT22;34679;51.436;-2.518;2024-01-15T03:47:02;3.90;99.90
48860;DHT22;34679;51.436;-2.518;2024-01-15T03:49:28;3.90;99.90
48860;DHT22;34679;51.436;-2.518;2024-01-15T03:51:54;4.00;99.90
48860;DHT22;34679;51.436;-2.518;2024-01-15T03:54:19;4.00;99.90
48860;DHT22;34679;51.436;-2.518;2024-01-15T03:56:45;4.00;99.90
48860;DHT22;34679;51.436;-2.518;2024-01-15T03:59:11;4.00;99.90
48860;DHT22;34679;51.436;-2.518;2024-01-15T04:01:36;4.00;99.90
48860;DHT22;34679;51.436;-2.518;2024-01-15T04:04:02;4.00;99.90
48860;DHT22;34679;51.436;-2.518;2024-01-15T04:06:27;4.00;99.90
48860;DHT22;34679;51.436;-2.518;2024-01-15T04:08:53;3.90;99.90
48860;DHT22;34679;51.436;-2.518;2024-01-15T04:11:19;4.00;99.90
48860;DHT22;34679;51.436;-2.518;2024-01-15T04:13:44;4.00;99.90
48860;DHT22;34679;51.436;-2.518;2024-01-15T04:16:10;3.90;99.90
48860;DHT22;34679;51.436;-2.518;2024-01-15T04:18:36;3.90;99.90
48860;DHT22;34679;51.436;-2.518;2024-01-15T04:21:04;4.00;99.90
48860;DHT22;34679;51.436;-2.518;2024-01-15T04:23:31;3.90;99.90
48860;DHT22;34679;51.436;-2.518;2024-01-15T04:25:57;3.90;99.90
48860;DHT22;34679;51.436;-2.518;2024-01-15T04:28:22;3.90;99.90
48860;DHT22;34679;51.436;-2.518;2024-01-15T04:30:48;3.70;99.90
48860;DHT22;34679;51.436;-2.518;2024-01-15T04:33:14;3.70;99.90
48860;DHT22;34679;51.436;-2.518;2024-01-15T04:35:39;3.60;99.90
48860;DHT22;34679;51.436;-2.518;2024-01-15T04:38:05;3.50;99.90
48860;DHT22;34679;51.436;-2.518;2024-01-15T04:40:31;3.40;99.90
48860;DHT22;34679;51.436;-2.518;2024-01-15T04:42:56;3.40;99.90
48860;DHT22;34679;51.436;-2.518;2024-01-15T04:45:22;3.40;99.90
48860;DHT22;34679;51.436;-2.518;2024-01-15T04:47:53;3.30;99.90
48860;DHT22;34679;51.436;-2.518;2024-01-15T04:50:19;3.30;99.90
48860;DHT22;34679;51.436;-2.518;2024-01-15T04:52:45;3.20;99.90
48860;DHT22;34679;51.436;-2.518;2024-01-15T04:55:10;3.10;99.90
48860;DHT22;34679;51.436;-2.518;2024-01-15T04:57:36;3.00;99.90
48860;DHT22;34679;51.436;-2.518;2024-01-15T05:00:02;3.00;99.90
48860;DHT22;34679;51.436;-2.518;2024-01-15T05:02:28;2.90;99.90
48860;DHT22;34679;51.436;-2.518;2024-01-15T05:04:53;2.80;99.90
48860;DHT22;34679;51.436;-2.518;2024-01-15T05:07:19;2.70;99.90
48860;DHT22;34679;51.436;-2.518;2024-01-15T05:09:45;2.70;99.90
48860;DHT22;34679;51.436;-2.518;2024-01-15T05:12:10;2.70;99.90
48860;DHT22;34679;51.436;-2.518;2024-01-15T05:14:37;2.70;99.90
48860;DHT22;34679;51.436;-2.518;2024-01-15T05:17:02;2.60;99.90
48860;DHT22;34679;51.436;-2.518;2024-01-15T05:19:28;2.60;99.90
48860;DHT22;34679;51.436;-2.518;2024-01-15T05:21:54;2.60;99.90
48860;DHT22;34679;51.436;-2.518;2024-01-15T05:24:19;2.50;99.90
48860;DHT22;34679;51.436;-2.518;2024-01-15T05:26:45;2.50;99.90
48860;DHT22;34679;51.436;-2.518;2024-01-15T05:29:11;2.40;99.90
48860;DHT22;34679;51.436;-2.518;2024-01-15T05:31:36;2.20;99.90
48860;DHT22;34679;51.436;-2.518;2024-01-15T05:34:02;2.10;99.90
48860;DHT22;34679;51.436;-2.518;2024-01-15T05:36:28;2.00;99.90
48860;DHT22;34679;51.436;-2.518;2024-01-15T05:38:53;1.90;99.90
48860;DHT22;34679;51.436;-2.518;2024-01-15T05:41:19;1.90;99.90
48860;DHT22;34679;51.436;-2.518;2024-01-15T05:43:45;1.90;99.90
48860;DHT22;34679;51.436;-2.518;2024-01-15T05:46:10;1.90;99.90
48860;DHT22;34679;51.436;-2.518;2024-01-15T05:48:36;1.80;99.90
48860;DHT22;34679;51.436;-2.518;2024-01-15T05:51:02;1.80;99.90
48860;DHT22;34679;51.436;-2.518;2024-01-15T05:53:27;1.70;99.90
48860;DHT22;34679;51.436;-2.518;2024-01-15T05:55:53;1.60;99.90
48860;DHT22;34679;51.436;-2.518;2024-01-15T05:58:21;1.60;99.90
48860;DHT22;34679;51.436;-2.518;2024-01-15T06:00:47;1.50;99.90
48860;DHT22;34679;51.436;-2.518;2024-01-15T06:03:13;1.40;99.90
48860;DHT22;34679;51.436;-2.518;2024-01-15T06:05:39;1.40;99.90
48860;DHT22;34679;51.436;-2.518;2024-01-15T06:08:05;1.30;99.90
48860;DHT22;34679;51.436;-2.518;2024-01-15T06:10:31;1.30;99.90
48860;DHT22;34679;51.436;-2.518;2024-01-15T06:12:56;1.20;99.90
48860;DHT22;34679;51.436;-2.518;2024-01-15T06:15:22;1.20;99.90
48860;DHT22;34679;51.436;-2.518;2024-01-15T06:17:48;1.10;99.90
48860;DHT22;34679;51.436;-2.518;2024-01-15T06:20:13;1.10;99.90
48860;DHT22;34679;51.436;-2.518;2024-01-15T06:22:39;1.00;99.90
48860;DHT22;34679;51.436;-2.518;2024-01-15T06:25:07;0.90;99.90
48860;DHT22;34679;51.436;-2.518;2024-01-15T06:27:33;0.90;99.90
48860;DHT22;34679;51.436;-2.518;2024-01-15T06:30:00;0.90;99.90
48860;DHT22;34679;51.436;-2.518;2024-01-15T06:32:26;0.90;99.90
48860;DHT22;34679;51.436;-2.518;2024-01-15T06:34:52;0.90;99.90
48860;DHT22;34679;51.436;-2.518;2024-01-15T06:37:17;0.70;99.90
48860;DHT22;34679;51.436;-2.518;2024-01-15T06:39:45;0.70;99.90
48860;DHT22;34679;51.436;-2.518;2024-01-15T06:42:11;0.60;99.90
48860;DHT22;34679;51.436;-2.518;2024-01-15T06:44:37;0.60;99.90
48860;DHT22;34679;51.436;-2.518;2024-01-15T06:47:02;0.50;99.90
48860;DHT22;34679;51.436;-2.518;2024-01-15T06:49:29;0.50;99.90
48860;DHT22;34679;51.436;-2.518;2024-01-15T06:51:55;0.40;99.90
48860;DHT22;34679;51.436;-2.518;2024-01-15T06:54:21;0.40;99.90
48860;DHT22;34679;51.436;-2.518;2024-01-15T06:56:46;0.40;99.90
48860;DHT22;34679;51.436;-2.518;2024-01-15T06:59:12;0.40;99.90
48860;DHT22;34679;51.436;-2.518;2024-01-15T07:01:38;0.40;99.90
48860;DHT22;34679;51.436;-2.518;2024-01-15T07:04:03;0.40;99.90
48860;DHT22;34679;51.436;-2.518;2024-01-15T07:06:29;0.40;99.90
48860;DHT22;34679;51.436;-2.518;2024-01-15T07:08:56;0.40;99.90
48860;DHT22;34679;51.436;-2.518;2024-01-15T07:11:22;0.40;99.90
48860;DHT22;34679;51.436;-2.518;2024-01-15T07:13:47;0.40;99.90
48860;DHT22;34679;51.436;-2.518;2024-01-15T07:16:13;0.40;99.90
48860;DHT22;34679;51.436;-2.518;2024-01-15T07:18:39;0.40;99.90
48860;DHT22;34679;51.436;-2.518;2024-01-15T07:21:04;0.30;99.90
48860;DHT22;34679;51.436;-2.518;2024-01-15T07:23:31;0.30;99.90
48860;DHT22;34679;51.436;-2.518;2024-01-15T07:25:57;0.30;99.90
48860;DHT22;34679;51.436;-2.518;2024-01-15T07:28:23;0.30;99.90
48860;DHT22;34679;51.436;-2.518;2024-01-15T07:30:49;0.20;99.90
48860;DHT22;34679;51.436;-2.518;2024-01-15T07:33:14;0.20;99.90
48860;DHT22;34679;51.436;-2.518;2024-01-15T07:35:40;0.30;99.90
48860;DHT22;34679;51.436;-2.518;2024-01-15T07:38:05;0.30;99.90
48860;DHT22;34679;51.436;-2.518;2024-01-15T07:40:31;0.40;99.90
48860;DHT22;34679;51.436;-2.518;2024-01-15T07:42:57;0.40;99.90
48860;DHT22;34679;51.436;-2.518;2024-01-15T07:45:22;0.50;99.90
48860;DHT22;34679;51.436;-2.518;2024-01-15T07:47:48;0.70;99.90
48860;DHT22;34679;51.436;-2.518;2024-01-15T07:50:14;0.70;99.90
48860;DHT22;34679;51.436;-2.518;2024-01-15T07:52:40;0.80;99.90
48860;DHT22;34679;51.436;-2.518;2024-01-15T07:55:09;0.80;99.90
48860;DHT22;34679;51.436;-2.518;2024-01-15T07:57:35;0.80;99.90
48860;DHT22;34679;51.436;-2.518;2024-01-15T08:00:02;0.70;99.90
48860;DHT22;34679;51.436;-2.518;2024-01-15T08:02:30;0.60;99.90
48860;DHT22;34679;51.436;-2.518;2024-01-15T08:04:57;0.50;99.90
48860;DHT22;34679;51.436;-2.518;2024-01-15T08:07:24;0.50;99.90
48860;DHT22;34679;51.436;-2.518;2024-01-15T08:09:51;0.50;99.90
48860;DHT22;34679;51.436;-2.518;2024-01-15T08:12:17;0.50;99.90
48860;DHT22;34679;51.436;-2.518;2024-01-15T08:14:43;0.50;99.90
48860;DHT22;34679;51.436;-2.518;2024-01-15T08:17:09;0.50;99.90
48860;DHT22;34679;51.436;-2.518;2024-01-15T08:19:34;0.60;99.90
48860;DHT22;34679;51.436;-2.518;2024-01-15T08:22:00;0.60;99.90
48860;DHT22;34679;51.436;-2.518;2024-01-15T08:24:26;0.60;99.90
48860;DHT22;34679;51.436;-2.518;2024-01-15T08:26:51;0.60;99.90
48860;DHT22;34679;51.436;-2.518;2024-01-15T08:29:17;0.60;99.90
48860;DHT22;34679;51.436;-2.518;2024-01-15T08:31:44;0.60;99.90
48860;DHT22;34679;51.436;-2.518;2024-01-15T08:34:10;0.60;99.90
48860;DHT22;34679;51.436;-2.518;2024-01-15T08:36:35;0.60;99.90
48860;DHT22;34679;51.436;-2.518;2024-01-15T08:39:01;0.60;99.90
48860;DHT22;34679;51.436;-2.518;2024-01-15T08:41:31;0.70;99.90
48860;DHT22;34679;51.436;-2.518;2024-01-15T08:43:56;0.70;99.90
48860;DHT22;34679;51.436;-2.518;2024-01-15T08:46:22;0.80;99.90
48860;DHT22;34679;51.436;-2.518;2024-01-15T08:48:48;0.90;99.90
48860;DHT22;34679;51.436;-2.518;2024-01-15T08:51:13;0.90;99.90
48860;DHT22;34679;51.436;-2.518;2024-01-15T08:53:39;0.80;99.90
48860;DHT22;34679;51.436;-2.518;2024-01-15T08:56:05;0.70;99.90
48860;DHT22;34679;51.436;-2.518;2024-01-15T08:58:31;0.80;99.90
48860;DHT22;34679;51.436;-2.518;2024-01-15T09:00:57;0.90;99.90
48860;DHT22;34679;51.436;-2.518;2024-01-15T09:03:22;1.10;99.90
48860;DHT22;34679;51.436;-2.518;2024-01-15T09:05:48;1.20;99.90
48860;DHT22;34679;51.436;-2.518;2024-01-15T09:08:15;1.50;99.90
48860;DHT22;34679;51.436;-2.518;2024-01-15T09:10:41;1.90;99.90
48860;DHT22;34679;51.436;-2.518;2024-01-15T09:13:07;2.50;99.90
48860;DHT22;34679;51.436;-2.518;2024-01-15T09:15:33;3.20;99.90
48860;DHT22;34679;51.436;-2.518;2024-01-15T09:17:59;4.00;99.90
48860;DHT22;34679;51.436;-2.518;2024-01-15T09:20:26;4.50;99.90
48860;DHT22;34679;51.436;-2.518;2024-01-15T09:22:52;5.00;99.90
48860;DHT22;34679;51.436;-2.518;2024-01-15T09:25:18;5.60;99.90
48860;DHT22;34679;51.436;-2.518;2024-01-15T09:27:44;5.60;99.90
48860;DHT22;34679;51.436;-2.518;2024-01-15T09:30:10;5.60;99.90
48860;DHT22;34679;51.436;-2.518;2024-01-15T09:32:36;5.30;99.90
48860;DHT22;34679;51.436;-2.518;2024-01-15T09:35:02;4.90;99.90
48860;DHT22;34679;51.436;-2.518;2024-01-15T09:37:28;4.50;99.90
48860;DHT22;34679;51.436;-2.518;2024-01-15T09:39:53;4.20;99.90
48860;DHT22;34679;51.436;-2.518;2024-01-15T09:42:22;3.90;99.90
48860;DHT22;34679;51.436;-2.518;2024-01-15T09:44:48;3.60;99.90
48860;DHT22;34679;51.436;-2.518;2024-01-15T09:47:15;3.30;99.90
48860;DHT22;34679;51.436;-2.518;2024-01-15T09:49:41;3.30;99.90
48860;DHT22;34679;51.436;-2.518;2024-01-15T09:52:07;3.10;99.90
48860;DHT22;34679;51.436;-2.518;2024-01-15T09:54:33;3.10;99.90
48860;DHT22;34679;51.436;-2.518;2024-01-15T09:57:00;3.10;99.90
48860;DHT22;34679;51.436;-2.518;2024-01-15T09:59:27;3.10;99.90
48860;DHT22;34679;51.436;-2.518;2024-01-15T10:01:53;3.10;99.90
48860;DHT22;34679;51.436;-2.518;2024-01-15T10:04:19;3.10;99.90
48860;DHT22;34679;51.436;-2.518;2024-01-15T10:06:46;3.20;99.90
48860;DHT22;34679;51.436;-2.518;2024-01-15T10:09:13;3.20;99.90
48860;DHT22;34679;51.436;-2.518;2024-01-15T10:11:41;3.20;99.90
48860;DHT22;34679;51.436;-2.518;2024-01-15T10:14:08;3.20;99.90
48860;DHT22;34679;51.436;-2.518;2024-01-15T10:16:34;3.30;99.90
48860;DHT22;34679;51.436;-2.518;2024-01-15T10:19:00;3.40;99.90
48860;DHT22;34679;51.436;-2.518;2024-01-15T10:21:25;3.40;99.90
48860;DHT22;34679;51.436;-2.518;2024-01-15T10:23:54;3.40;99.90
48860;DHT22;34679;51.436;-2.518;2024-01-15T10:26:24;3.50;99.90
48860;DHT22;34679;51.436;-2.518;2024-01-15T10:28:51;3.60;99.90
48860;DHT22;34679;51.436;-2.518;2024-01-15T10:31:17;3.60;99.90
48860;DHT22;34679;51.436;-2.518;2024-01-15T10:33:45;3.60;99.90
48860;DHT22;34679;51.436;-2.518;2024-01-15T10:36:10;3.60;99.90
48860;DHT22;34679;51.436;-2.518;2024-01-15T10:38:39;3.70;99.90
48860;DHT22;34679;51.436;-2.518;2024-01-15T10:41:05;3.60;99.90
48860;DHT22;34679;51.436;-2.518;2024-01-15T10:46:06;3.70;99.90
48860;DHT22;34679;51.436;-2.518;2024-01-15T10:48:33;3.80;99.90
48860;DHT22;34679;51.436;-2.518;2024-01-15T10:51:01;3.80;99.90
48860;DHT22;34679;51.436;-2.518;2024-01-15T10:53:39;3.80;99.90
48860;DHT22;34679;51.436;-2.518;2024-01-15T10:56:08;3.80;99.90
48860;DHT22;34679;51.436;-2.518;2024-01-15T10:58:37;3.90;99.90
48860;DHT22;34679;51.436;-2.518;2024-01-15T11:01:05;3.90;99.90
48860;DHT22;34679;51.436;-2.518;2024-01-15T11:03:31;3.90;99.90
48860;DHT22;34679;51.436;-2.518;2024-01-15T11:05:57;4.00;99.90
48860;DHT22;34679;51.436;-2.518;2024-01-15T11:08:24;4.00;99.90
48860;DHT22;34679;51.436;-2.518;2024-01-15T11:10:51;4.00;99.90
48860;DHT22;34679;51.436;-2.518;2024-01-15T11:18:35;4.00;99.90
48860;DHT22;34679;51.436;-2.518;2024-01-15T11:21:20;4.00;99.90
48860;DHT22;34679;51.436;-2.518;2024-01-15T11:23:56;4.00;99.90
48860;DHT22;34679;51.436;-2.518;2024-01-15T11:29:06;4.00;99.90
48860;DHT22;34679;51.436;-2.518;2024-01-15T11:34:08;4.10;99.90
48860;DHT22;34679;51.436;-2.518;2024-01-15T11:42:02;4.10;99.90
48860;DHT22;34679;51.436;-2.518;2024-01-15T11:44:31;4.20;99.90
48860;DHT22;34679;51.436;-2.518;2024-01-15T11:47:05;4.10;99.90
48860;DHT22;34679;51.436;-2.518;2024-01-15T11:49:53;4.10;99.90
48860;DHT22;34679;51.436;-2.518;2024-01-15T11:52:23;4.20;99.90
48860;DHT22;34679;51.436;-2.518;2024-01-15T11:55:00;4.30;99.90
48860;DHT22;34679;51.436;-2.518;2024-01-15T11:57:37;4.20;99.90
48860;DHT22;34679;51.436;-2.518;2024-01-15T12:00:07;4.20;99.90
48860;DHT22;34679;51.436;-2.518;2024-01-15T12:02:34;4.20;99.90
48860;DHT22;34679;51.436;-2.518;2024-01-15T12:05:00;4.20;99.90
48860;DHT22;34679;51.436;-2.518;2024-01-15T12:07:25;4.10;99.90
48860;DHT22;34679;51.436;-2.518;2024-01-15T12:09:51;4.10;99.90
48860;DHT22;34679;51.436;-2.518;2024-01-15T12:12:24;4.10;99.90
48860;DHT22;34679;51.436;-2.518;2024-01-15T12:14:53;4.20;99.90
48860;DHT22;34679;51.436;-2.518;2024-01-15T12:17:19;4.20;99.90
48860;DHT22;34679;51.436;-2.518;2024-01-15T12:19:45;4.20;99.90
48860;DHT22;34679;51.436;-2.518;2024-01-15T12:22:11;4.10;99.90
48860;DHT22;34679;51.436;-2.518;2024-01-15T12:24:36;4.20;99.90
48860;DHT22;34679;51.436;-2.518;2024-01-15T12:27:02;4.20;99.90
48860;DHT22;34679;51.436;-2.518;2024-01-15T12:29:28;4.20;99.90
48860;DHT22;34679;51.436;-2.518;2024-01-15T12:31:54;4.20;99.90
48860;DHT22;34679;51.436;-2.518;2024-01-15T12:34:20;4.20;99.90
48860;DHT22;34679;51.436;-2.518;2024-01-15T12:36:47;4.20;99.90
48860;DHT22;34679;51.436;-2.518;2024-01-15T12:39:13;4.30;99.90
48860;DHT22;34679;51.436;-2.518;2024-01-15T12:41:39;4.30;99.90
48860;DHT22;34679;51.436;-2.518;2024-01-15T12:44:04;4.30;99.90
48860;DHT22;34679;51.436;-2.518;2024-01-15T12:46:31;4.20;99.90
48860;DHT22;34679;51.436;-2.518;2024-01-15T12:48:57;4.20;99.90
48860;DHT22;34679;51.436;-2.518;2024-01-15T12:51:26;4.10;99.90
48860;DHT22;34679;51.436;-2.518;2024-01-15T12:53:52;4.20;99.90
48860;DHT22;34679;51.436;-2.518;2024-01-15T12:56:18;4.20;99.90
48860;DHT22;34679;51.436;-2.518;2024-01-15T12:58:46;4.20;99.90
48860;DHT22;34679;51.436;-2.518;2024-01-15T13:01:12;4.30;99.90
48860;DHT22;34679;51.436;-2.518;2024-01-15T13:03:38;4.30;99.90
48860;DHT22;34679;51.436;-2.518;2024-01-15T13:06:04;4.30;99.90
48860;DHT22;34679;51.436;-2.518;2024-01-15T13:08:30;4.30;99.90
48860;DHT22;34679;51.436;-2.518;2024-01-15T13:10:56;4.30;99.90
48860;DHT22;34679;51.436;-2.518;2024-01-15T13:13:23;4.30;99.90
48860;DHT22;34679;51.436;-2.518;2024-01-15T13:15:49;4.40;99.90
48860;DHT22;34679;51.436;-2.518;2024-01-15T13:18:14;4.30;99.90
48860;DHT22;34679;51.436;-2.518;2024-01-15T13:20:41;4.30;99.90
48860;DHT22;34679;51.436;-2.518;2024-01-15T13:23:06;4.30;99.80
48860;DHT22;34679;51.436;-2.518;2024-01-15T13:25:32;4.30;99.90
48860;DHT22;34679;51.436;-2.518;2024-01-15T13:28:00;4.30;99.90
48860;DHT22;34679;51.436;-2.518;2024-01-15T13:30:27;4.30;99.80
48860;DHT22;34679;51.436;-2.518;2024-01-15T13:32:53;4.30;99.10
48860;DHT22;34679;51.436;-2.518;2024-01-15T13:35:21;4.30;99.30
48860;DHT22;34679;51.436;-2.518;2024-01-15T13:37:47;4.40;99.10
48860;DHT22;34679;51.436;-2.518;2024-01-15T13:40:13;4.30;99.10
48860;DHT22;34679;51.436;-2.518;2024-01-15T13:42:42;4.30;98.60
48860;DHT22;34679;51.436;-2.518;2024-01-15T13:45:08;4.30;99.10
48860;DHT22;34679;51.436;-2.518;2024-01-15T13:47:34;4.30;99.30
48860;DHT22;34679;51.436;-2.518;2024-01-15T13:49:59;4.30;99.10
48860;DHT22;34679;51.436;-2.518;2024-01-15T13:52:25;4.30;98.90
48860;DHT22;34679;51.436;-2.518;2024-01-15T13:54:53;4.30;99.10
48860;DHT22;34679;51.436;-2.518;2024-01-15T13:57:19;4.30;99.30
48860;DHT22;34679;51.436;-2.518;2024-01-15T13:59:44;4.30;99.90
48860;DHT22;34679;51.436;-2.518;2024-01-15T14:02:10;4.30;99.40
48860;DHT22;34679;51.436;-2.518;2024-01-15T14:04:37;4.30;99.50
48860;DHT22;34679;51.436;-2.518;2024-01-15T14:07:03;4.30;99.80
48860;DHT22;34679;51.436;-2.518;2024-01-15T14:09:29;4.20;99.40
48860;DHT22;34679;51.436;-2.518;2024-01-15T14:11:57;4.20;99.20
48860;DHT22;34679;51.436;-2.518;2024-01-15T14:14:22;4.20;99.10
48860;DHT22;34679;51.436;-2.518;2024-01-15T14:16:49;4.20;99.10
48860;DHT22;34679;51.436;-2.518;2024-01-15T14:19:14;4.20;99.50
48860;DHT22;34679;51.436;-2.518;2024-01-15T14:21:40;4.30;99.80
48860;DHT22;34679;51.436;-2.518;2024-01-15T14:24:06;4.30;99.80
48860;DHT22;34679;51.436;-2.518;2024-01-15T14:26:32;4.30;99.50
48860;DHT22;34679;51.436;-2.518;2024-01-15T14:28:58;4.30;99.70
48860;DHT22;34679;51.436;-2.518;2024-01-15T14:31:24;4.20;99.70
48860;DHT22;34679;51.436;-2.518;2024-01-15T14:33:52;4.20;99.70
48860;DHT22;34679;51.436;-2.518;2024-01-15T14:36:17;4.30;99.90
48860;DHT22;34679;51.436;-2.518;2024-01-15T14:38:43;4.30;99.90
48860;DHT22;34679;51.436;-2.518;2024-01-15T14:41:09;4.20;99.90
48860;DHT22;34679;51.436;-2.518;2024-01-15T14:43:34;4.20;99.90
48860;DHT22;34679;51.436;-2.518;2024-01-15T14:46:00;4.20;99.90
48860;DHT22;34679;51.436;-2.518;2024-01-15T14:48:26;4.20;99.90
48860;DHT22;34679;51.436;-2.518;2024-01-15T14:50:52;4.20;99.90
48860;DHT22;34679;51.436;-2.518;2024-01-15T14:53:17;4.10;99.90
48860;DHT22;34679;51.436;-2.518;2024-01-15T14:55:43;4.10;99.90
48860;DHT22;34679;51.436;-2.518;2024-01-15T14:58:09;4.10;99.90
48860;DHT22;34679;51.436;-2.518;2024-01-15T15:00:35;4.10;99.90
48860;DHT22;34679;51.436;-2.518;2024-01-15T15:03:00;4.00;99.90
48860;DHT22;34679;51.436;-2.518;2024-01-15T15:05:26;4.00;99.90
48860;DHT22;34679;51.436;-2.518;2024-01-15T15:07:52;4.00;99.90
48860;DHT22;34679;51.436;-2.518;2024-01-15T15:10:17;3.90;99.90
48860;DHT22;34679;51.436;-2.518;2024-01-15T15:12:43;3.90;99.90
48860;DHT22;34679;51.436;-2.518;2024-01-15T15:15:09;3.80;99.90
48860;DHT22;34679;51.436;-2.518;2024-01-15T15:17:37;3.90;99.90
48860;DHT22;34679;51.436;-2.518;2024-01-15T15:20:04;3.90;99.90
48860;DHT22;34679;51.436;-2.518;2024-01-15T15:22:30;3.90;99.90
48860;DHT22;34679;51.436;-2.518;2024-01-15T15:24:56;3.80;99.90
48860;DHT22;34679;51.436;-2.518;2024-01-15T15:27:22;3.80;99.90
48860;DHT22;34679;51.436;-2.518;2024-01-15T15:29:48;3.70;99.90
48860;DHT22;34679;51.436;-2.518;2024-01-15T15:32:15;3.70;99.90
48860;DHT22;34679;51.436;-2.518;2024-01-15T15:34:41;3.70;99.90
48860;DHT22;34679;51.436;-2.518;2024-01-15T15:37:07;3.70;99.90
48860;DHT22;34679;51.436;-2.518;2024-01-15T15:39:33;3.60;99.90
48860;DHT22;34679;51.436;-2.518;2024-01-15T15:41:58;3.60;99.90